Wednesday, January 17, 2018, 4:35 PM EST

KJYO, Leesburg / Godfrey

Location: Leesburg, VA, United States Lat: 39.083
Local Time: 4:35 PM EST (21:35 GMT) Lon: -77.567
Time Zone: US/Eastern Elev: 390 ft

Show me the last for .
Show Decoded

2018-01-17 16:15 METAR KJYO 172115Z AUTO 01007G16KT 10SM CLR M03/M12 A3033 RMK AO2 =
2018-01-17 15:55 METAR KJYO 172055Z AUTO 01009G15KT 10SM CLR M03/M12 A3034 RMK AO2 =
2018-01-17 15:35 METAR KJYO 172035Z AUTO 36010G16KT 10SM CLR M04/M12 A3034 RMK AO2 =
2018-01-17 15:15 METAR KJYO 172015Z AUTO 36007G17KT 10SM SCT120 M04/M12 A3035 RMK AO2 =
2018-01-17 14:55 METAR KJYO 171955Z AUTO 35012G20KT 10SM CLR M04/M12 A3035 RMK AO2 =
2018-01-17 14:35 METAR KJYO 171935Z AUTO 34011G17KT 10SM CLR M03/M12 A3035 RMK AO2 =
2018-01-17 14:15 METAR KJYO 171915Z AUTO 36012G18KT 10SM CLR M04/M12 A3034 RMK AO2 =
2018-01-17 13:55 METAR KJYO 171855Z AUTO 35012G19KT 10SM CLR M04/M12 A3036 RMK AO2 =
2018-01-17 13:35 METAR KJYO 171835Z AUTO 34016G20KT 10SM CLR M05/M12 A3037 RMK AO2 =
2018-01-17 13:15 METAR KJYO 171815Z AUTO 34015G18KT 10SM CLR M05/M12 A3037 RMK AO2 =
2018-01-17 12:55 METAR KJYO 171755Z AUTO 34011KT 10SM CLR M04/M11 A3037 RMK AO2 =
2018-01-17 12:35 METAR KJYO 171735Z AUTO 33013G19KT 10SM SCT090 M04/M11 A3038 RMK AO2 =
2018-01-17 12:15 METAR KJYO 171715Z AUTO 35011G16KT 10SM SCT090 M04/M11 A3039 RMK AO2 =
2018-01-17 11:55 METAR KJYO 171655Z AUTO 36013G21KT 10SM SCT090 M04/M11 A3040 RMK AO2 =
2018-01-17 11:35 METAR KJYO 171635Z AUTO 36011G18KT 10SM BKN100 M04/M11 A3041 RMK AO2 =
2018-01-17 11:15 METAR KJYO 171615Z AUTO 36013G18KT 10SM BKN100 M04/M11 A3042 RMK AO2 =
2018-01-17 10:55 METAR KJYO 171555Z AUTO 35012G19KT 10SM BKN100 M04/M10 A3043 RMK AO2 =
2018-01-17 10:35 METAR KJYO 171535Z AUTO 34012KT 10SM SCT060 SCT070 SCT100 M04/M11 A3044 RMK AO2
                 =
2018-01-17 10:15 METAR KJYO 171515Z AUTO 34014G18KT 10SM SCT065 BKN070 M04/M11 A3044 RMK AO2 =
2018-01-17 09:55 METAR KJYO 171455Z AUTO 34015G21KT 10SM OVC065 M05/M11 A3044 RMK AO2 =
2018-01-17 09:35 METAR KJYO 171435Z AUTO 34015G21KT 10SM SCT065 OVC075 M05/M11 A3044 RMK AO2 =
2018-01-17 09:15 METAR KJYO 171415Z AUTO 35012G17KT 10SM BKN065 OVC075 M05/M10 A3043 RMK AO2 =
2018-01-17 08:55 METAR KJYO 171355Z AUTO 35012G17KT 10SM OVC065 M05/M10 A3042 RMK AO2 =
2018-01-17 08:35 METAR KJYO 171335Z AUTO 36011G17KT 10SM OVC065 M05/M10 A3042 RMK AO2 =
2018-01-17 08:15 METAR KJYO 171315Z AUTO 35011G15KT 10SM SCT055 BKN065 OVC075 M05/M10 A3041 RMK
                 AO2 =
2018-01-17 07:55 METAR KJYO 171255Z AUTO 35010G18KT 10SM OVC049 M04/M09 A3041 RMK AO2 =
2018-01-17 07:35 METAR KJYO 171235Z AUTO 35012G17KT 10SM BKN049 OVC055 M04/M08 A3040 RMK AO2 =
2018-01-17 07:15 METAR KJYO 171215Z AUTO 36012G17KT 10SM SCT047 OVC060 M04/M07 A3040 RMK AO2 =
2018-01-17 06:55 METAR KJYO 171155Z AUTO 35011G17KT 5SM -SN OVC060 M04/M07 A3040 RMK AO2 =
2018-01-17 06:35 METAR KJYO 171135Z AUTO 36011G18KT 7SM -SN OVC060 M04/M07 A3040 RMK AO2 =
2018-01-17 06:15 METAR KJYO 171115Z AUTO 36014KT 7SM -SN SCT038 BKN065 OVC100 M03/M07 A3040 RMK
                 AO2 =
2018-01-17 05:55 METAR KJYO 171055Z AUTO 36010G15KT 10SM SCT037 BKN060 OVC085 M03/M06 A3039 RMK
                 AO2 =
2018-01-17 05:35 METAR KJYO 171035Z AUTO 35011G14KT 10SM BKN048 OVC060 M03/M06 A3039 RMK AO2 =
2018-01-17 05:15 METAR KJYO 171015Z AUTO 35009G17KT 10SM -SN OVC050 M03/M06 A3038 RMK AO2 =
2018-01-17 04:55 METAR KJYO 170955Z AUTO 36009G14KT 10SM OVC049 M02/M05 A3036 RMK AO2 =
2018-01-17 04:35 METAR KJYO 170935Z AUTO 36008KT 10SM SCT028 OVC049 M02/M04 A3036 RMK AO2 =
2018-01-17 04:15 METAR KJYO 170915Z AUTO 36010KT 4SM -SN SCT013 BKN028 OVC047 M02/M03 A3036 RMK
                 AO2 =
2018-01-17 03:55 METAR KJYO 170855Z AUTO 36010KT 5SM -SN BKN015 BKN034 OVC045 M01/M03 A3036 RMK
                 AO2 =
2018-01-17 03:35 METAR KJYO 170835Z AUTO 01009KT 7SM BKN015 OVC034 M01/M02 A3035 RMK AO2 =
2018-01-17 03:15 METAR KJYO 170815Z AUTO 35012G15KT 7SM OVC017 00/M02 A3036 RMK AO2 =
2018-01-17 02:55 METAR KJYO 170755Z AUTO 01007KT 10SM BKN017 OVC029 00/M02 A3035 RMK AO2 =
2018-01-17 02:35 METAR KJYO 170735Z AUTO 35010KT 7SM -SN BKN017 OVC031 00/M02 A3035 RMK AO2 =
2018-01-17 02:15 METAR KJYO 170715Z AUTO 35010G15KT 10SM BKN017 OVC031 00/M02 A3034 RMK AO2 =
2018-01-17 01:55 METAR KJYO 170655Z AUTO 35009KT 10SM OVC017 00/M01 A3034 RMK AO2 =
2018-01-17 01:35 METAR KJYO 170635Z AUTO 35009KT 10SM BKN017 OVC029 00/M01 A3034 RMK AO2 =
2018-01-17 01:15 METAR KJYO 170615Z AUTO 34010G15KT 10SM BKN017 BKN029 OVC043 00/M01 A3034 RMK
                 AO2 =
2018-01-17 00:55 METAR KJYO 170555Z AUTO 35007KT 10SM SCT017 BKN044 OVC055 00/M01 A3033 RMK AO2 =
2018-01-17 00:35 METAR KJYO 170535Z AUTO 35006KT 7SM BKN033 BKN048 OVC055 00/00 A3035 RMK AO2 =
2018-01-17 00:15 METAR KJYO 170515Z AUTO 34007KT 10SM OVC033 00/00 A3035 RMK AO2 =
2018-01-16 23:55 METAR KJYO 170455Z AUTO 34006KT 7SM OVC033 00/00 A3036 RMK AO2 =
2018-01-16 23:35 METAR KJYO 170435Z AUTO 35007KT 7SM OVC033 00/00 A3036 RMK AO2 =
2018-01-16 23:15 METAR KJYO 170415Z AUTO 35009KT 7SM OVC029 00/00 A3036 RMK AO2 =
2018-01-16 22:55 METAR KJYO 170355Z AUTO 33009KT 10SM OVC029 01/M01 A3037 RMK AO2 =
2018-01-16 22:35 METAR KJYO 170335Z AUTO 01005KT 7SM BKN031 BKN037 OVC075 01/00 A3036 RMK AO2 =
2018-01-16 22:15 METAR KJYO 170315Z AUTO 02005KT 7SM BKN031 OVC038 01/00 A3036 RMK AO2 =
2018-01-16 21:55 METAR KJYO 170255Z AUTO 01006KT 7SM BKN029 OVC039 01/M01 A3036 RMK AO2 =
2018-01-16 21:35 METAR KJYO 170235Z AUTO 01005KT 7SM -SN BKN033 OVC041 01/M01 A3036 RMK AO2 =
2018-01-16 21:15 METAR KJYO 170215Z AUTO 01004KT 10SM BKN035 OVC045 01/M01 A3035 RMK AO2 =
2018-01-16 20:55 METAR KJYO 170155Z AUTO 00000KT 10SM BKN035 BKN041 OVC055 01/M01 A3036 RMK AO2 =
2018-01-16 20:35 METAR KJYO 170135Z AUTO 04004KT 10SM BKN055 OVC065 01/M01 A3036 RMK AO2 =
2018-01-16 20:15 METAR KJYO 170115Z AUTO 02004KT 10SM BKN060 OVC070 01/M02 A3036 RMK AO2 =
2018-01-16 19:55 METAR KJYO 170055Z AUTO 04004KT 10SM OVC070 02/M02 A3036 RMK AO2 =
2018-01-16 19:35 METAR KJYO 170035Z AUTO 01004KT 10SM OVC070 02/M02 A3036 RMK AO2 =
2018-01-16 19:15 METAR KJYO 170015Z AUTO 02004KT 10SM OVC080 02/M03 A3036 RMK AO2 =
2018-01-16 18:55 METAR KJYO 162355Z AUTO 00000KT 10SM SCT065 BKN080 OVC100 02/M03 A3036 RMK AO2 =
2018-01-16 18:35 METAR KJYO 162335Z AUTO 00000KT 10SM BKN100 02/M03 A3036 RMK AO2 =
2018-01-16 18:15 METAR KJYO 162315Z AUTO 00000KT 10SM BKN100 BKN120 02/M03 A3036 RMK AO2 =
2018-01-16 17:55 METAR KJYO 162255Z AUTO 00000KT 10SM BKN110 02/M03 A3036 RMK AO2 =
2018-01-16 17:35 METAR KJYO 162235Z AUTO 00000KT 10SM BKN100 02/M03 A3036 RMK AO2 =
2018-01-16 17:15 METAR KJYO 162215Z AUTO 00000KT 10SM BKN100 03/M03 A3036 RMK AO2 =
2018-01-16 16:55 METAR KJYO 162155Z AUTO 00000KT 10SM BKN120 03/M03 A3036 RMK AO2 =

Support USWX by starting your Amazon purchase here.